createdAt,value
2022-11-07T00:02:14.552Z,99820.59
2022-11-07T00:04:43.341Z,99825.22
2022-11-07T00:07:11.941Z,99826.31
2022-11-07T00:09:40.362Z,99830.47
2022-11-07T00:12:09.007Z,99832.31
2022-11-07T00:14:37.363Z,99841.28
2022-11-07T00:17:05.825Z,99843.41
2022-11-07T00:19:34.174Z,99847.56
2022-11-07T00:22:02.545Z,99853.75
2022-11-07T00:24:30.969Z,99858.69
2022-11-07T00:26:59.344Z,99864.38
2022-11-07T00:29:27.739Z,99866.50
2022-11-07T00:31:56.134Z,99865.88
2022-11-07T00:34:24.492Z,99870.78
2022-11-07T00:36:52.873Z,99876.97
2022-11-07T00:39:21.224Z,99879.13
2022-11-07T00:41:50.370Z,99882.78
2022-11-07T00:44:18.706Z,99876.59
2022-11-07T00:46:47.111Z,99885.84
2022-11-07T00:49:15.507Z,99887.53
2022-11-07T00:51:43.892Z,99888.41
2022-11-07T00:54:12.283Z,99890.84
2022-11-07T00:56:40.793Z,99892.97
2022-11-07T00:59:09.269Z,99889.06
2022-11-07T01:01:37.913Z,99894.00
2022-11-07T01:04:25.102Z,99903.22
2022-11-07T01:06:53.457Z,99897.28
2022-11-07T01:09:23.399Z,99902.97
2022-11-07T01:11:51.915Z,99899.06
2022-11-07T01:14:22.498Z,99904.25
2022-11-07T01:16:52.007Z,99910.75
2022-11-07T01:19:21.327Z,99912.88
2022-11-07T01:21:49.745Z,99918.88
2022-11-07T01:24:18.825Z,99915.41
2022-11-07T01:26:50.396Z,99925.13
2022-11-07T01:29:20.087Z,99923.97
2022-11-07T01:31:48.813Z,99929.66
2022-11-07T01:34:18.704Z,99933.34
2022-11-07T01:36:47.378Z,99929.59
2022-11-07T01:39:18.581Z,99934.78
2022-11-07T01:41:46.965Z,99939.19
2022-11-07T01:44:35.339Z,99942.09
2022-11-07T01:47:03.975Z,99942.19
2022-11-07T01:49:36.063Z,99938.28
2022-11-07T01:52:40.971Z,99935.84
2022-11-07T01:55:16.795Z,99945.56
2022-11-07T01:57:58.957Z,99948.00
2022-11-07T02:00:28.327Z,99952.41
2022-11-07T02:03:02.668Z,99948.91
2022-11-07T02:05:54.674Z,99949.28
2022-11-07T02:08:25.387Z,99948.59
2022-11-07T02:10:55.152Z,99937.78
2022-11-07T02:13:28.438Z,99947.31
2022-11-07T02:15:57.295Z,99952.47
2022-11-07T02:18:28.999Z,99947.31
2022-11-07T02:21:03.228Z,99943.31
2022-11-07T02:24:11.722Z,99948.75
2022-11-07T02:26:41.657Z,99945.84
2022-11-07T02:29:11.819Z,99944.94
2022-11-07T02:31:40.191Z,99946.81
2022-11-07T02:34:08.505Z,99940.28
2022-11-07T02:36:37.030Z,99943.44
2022-11-07T02:39:05.607Z,99943.75
2022-11-07T02:41:36.088Z,99937.25
2022-11-07T02:44:09.938Z,99937.13
2022-11-07T02:46:39.111Z,99944.56
2022-11-07T02:49:07.959Z,99937.53
2022-11-07T02:51:36.291Z,99933.53
2022-11-07T02:54:05.217Z,99931.81
2022-11-07T02:56:33.566Z,99929.81
2022-11-07T02:59:02.090Z,99925.03
2022-11-07T03:01:30.647Z,99931.97
2022-11-07T03:03:59.211Z,99930.75
2022-11-07T03:06:27.990Z,99930.28
2022-11-07T03:08:56.354Z,99925.50
2022-11-07T03:11:24.811Z,99923.97
2022-11-07T03:13:53.234Z,99926.34
2022-11-07T03:16:21.785Z,99920.00
2022-11-07T03:18:50.196Z,99904.72
2022-11-07T03:21:18.607Z,99904.75
2022-11-07T03:23:46.930Z,99896.34
2022-11-07T03:26:15.304Z,99901.25
2022-11-07T03:28:43.620Z,99896.16
2022-11-07T03:31:12.037Z,99896.19
2022-11-07T03:33:40.359Z,99899.81
2022-11-07T03:36:08.985Z,99894.97
2022-11-07T03:38:37.349Z,99884.56
2022-11-07T03:41:05.791Z,99881.50
2022-11-07T03:43:34.303Z,99880.75
2022-11-07T03:46:02.668Z,99874.91
2022-11-07T03:48:30.970Z,99864.47
2022-11-07T03:50:59.275Z,99865.50
2022-11-07T03:53:27.989Z,99869.84
2022-11-07T03:55:57.630Z,99856.56
2022-11-07T03:58:27.224Z,99851.22
2022-11-07T04:00:55.570Z,99849.22
2022-11-07T04:03:23.874Z,99848.94
2022-11-07T04:05:52.199Z,99830.03
2022-11-07T04:08:21.002Z,99830.03
2022-11-07T04:10:49.347Z,99826.72
2022-11-07T04:13:35.911Z,99827.47
2022-11-07T04:16:30.262Z,99816.22
2022-11-07T04:18:59.832Z,99808.03
2022-11-07T04:21:28.148Z,99805.75
2022-11-07T04:23:56.935Z,99800.88
2022-11-07T04:26:43.442Z,99790.88
2022-11-07T04:29:11.832Z,99788.06
2022-11-07T04:31:40.191Z,99762.50
2022-11-07T04:34:08.529Z,99774.00
2022-11-07T04:36:37.222Z,99765.53
2022-11-07T04:39:05.632Z,99752.97
2022-11-07T04:41:34.023Z,99750.88
2022-11-07T04:44:02.391Z,99747.78
2022-11-07T04:46:30.711Z,99738.28
2022-11-07T04:48:59.060Z,99735.97
2022-11-07T04:51:27.770Z,99733.63
2022-11-07T04:53:56.144Z,99724.38
2022-11-07T04:56:24.544Z,99729.72
2022-11-07T04:58:52.837Z,99723.09
2022-11-07T05:01:21.170Z,99714.34
2022-11-07T05:03:49.530Z,99708.22
2022-11-07T05:06:17.912Z,99699.50
2022-11-07T05:08:46.267Z,99705.59
2022-11-07T05:11:14.560Z,99692.00
2022-11-07T05:13:43.072Z,99686.31
2022-11-07T05:16:18.075Z,99687.56
2022-11-07T05:18:46.717Z,99680.13
2022-11-07T05:21:15.061Z,99673.47
2022-11-07T05:23:43.385Z,99663.41
2022-11-07T05:26:11.856Z,99667.25
2022-11-07T05:28:40.280Z,99657.97
2022-11-07T05:31:09.906Z,99661.03
2022-11-07T05:33:38.281Z,99644.59
2022-11-07T05:36:15.455Z,99642.22
2022-11-07T05:38:45.963Z,99638.63
2022-11-07T05:41:16.239Z,99627.84
2022-11-07T05:43:45.202Z,99625.25
2022-11-07T05:46:14.163Z,99614.97
2022-11-07T05:48:42.658Z,99614.44
2022-11-07T05:51:11.073Z,99611.09
2022-11-07T05:53:39.441Z,99599.81
2022-11-07T05:56:08.058Z,99589.53
2022-11-07T05:58:36.723Z,99577.22
2022-11-07T06:01:07.408Z,99572.56
2022-11-07T06:03:35.708Z,99566.38
2022-11-07T06:06:04.072Z,99566.91
2022-11-07T06:08:36.052Z,99565.84
2022-11-07T06:11:07.677Z,99554.28
2022-11-07T06:13:36.071Z,99556.59
2022-11-07T06:16:04.585Z,99547.06
2022-11-07T06:18:35.554Z,99534.72
2022-11-07T06:21:08.122Z,99530.06
2022-11-07T06:23:36.445Z,99526.94
2022-11-07T06:26:04.921Z,99513.38
2022-11-07T06:28:33.256Z,99517.94
2022-11-07T06:31:03.506Z,99506.91
2022-11-07T06:33:32.070Z,99504.53
2022-11-07T06:36:14.823Z,99499.34
2022-11-07T06:38:43.208Z,99500.34
2022-11-07T06:41:14.284Z,99489.28
2022-11-07T06:43:42.927Z,99484.63
2022-11-07T06:46:15.540Z,99480.50
2022-11-07T06:48:43.858Z,99472.06
2022-11-07T06:51:13.008Z,99472.06
2022-11-07T06:53:41.861Z,99478.47
2022-11-07T06:56:14.732Z,99468.94
2022-11-07T06:58:43.305Z,99461.78
2022-11-07T07:01:16.002Z,99457.66
2022-11-07T07:03:45.131Z,99450.72
2022-11-07T07:06:15.833Z,99442.50
2022-11-07T07:08:46.068Z,99441.94
2022-11-07T07:11:16.166Z,99430.88
2022-11-07T07:13:44.601Z,99423.19
2022-11-07T07:16:13.967Z,99424.69
2022-11-07T07:18:42.262Z,99420.59
2022-11-07T07:21:12.999Z,99418.84
2022-11-07T07:23:41.803Z,99416.78
2022-11-07T07:26:14.843Z,99413.19
2022-11-07T07:28:44.317Z,99409.63
2022-11-07T07:31:26.012Z,99408.63
2022-11-07T07:33:54.365Z,99408.63
2022-11-07T07:36:22.730Z,99403.00
2022-11-07T07:38:52.382Z,99406.59
2022-11-07T07:41:21.915Z,99403.75
2022-11-07T07:43:50.262Z,99400.19
2022-11-07T07:46:23.321Z,99396.06
2022-11-07T07:48:51.705Z,99392.47
2022-11-07T07:51:20.095Z,99397.34
2022-11-07T07:53:48.415Z,99390.19
2022-11-07T07:56:18.546Z,99380.97
2022-11-07T07:58:47.717Z,99380.75
2022-11-07T08:01:16.163Z,99382.81
2022-11-07T08:04:00.821Z,99385.38
2022-11-07T08:06:30.796Z,99381.81
2022-11-07T08:08:59.241Z,99375.41
2022-11-07T08:11:27.731Z,99372.38
2022-11-07T08:14:00.847Z,99374.44
2022-11-07T08:16:30.223Z,99373.66
2022-11-07T08:18:58.549Z,99368.25
2022-11-07T08:21:26.844Z,99371.81
2022-11-07T08:23:58.649Z,99374.09
2022-11-07T08:26:27.223Z,99373.81
2022-11-07T08:28:56.075Z,99377.41
2022-11-07T08:31:24.380Z,99368.41
2022-11-07T08:33:52.823Z,99362.75
2022-11-07T08:36:21.519Z,99361.44
2022-11-07T08:38:49.954Z,99370.34
2022-11-07T08:41:21.913Z,99367.75
2022-11-07T08:43:51.086Z,99365.91
2022-11-07T08:46:19.449Z,99371.75
2022-11-07T08:48:47.774Z,99369.69
2022-11-07T08:51:16.100Z,99371.97
2022-11-07T08:53:44.423Z,99371.00
2022-11-07T08:56:13.086Z,99373.06
2022-11-07T08:58:41.436Z,99367.75
2022-11-07T09:01:10.806Z,99373.16
2022-11-07T09:03:52.882Z,99370.66
2022-11-07T09:06:25.298Z,99375.13
2022-11-07T09:08:54.017Z,99374.66
2022-11-07T09:11:22.971Z,99386.78
2022-11-07T09:13:51.274Z,99377.09
2022-11-07T09:16:20.358Z,99377.19
2022-11-07T09:18:50.554Z,99370.91
2022-11-07T09:21:22.434Z,99374.03
2022-11-07T09:23:52.389Z,99373.03
2022-11-07T09:26:20.890Z,99367.41
2022-11-07T09:28:52.882Z,99371.53
2022-11-07T09:31:22.413Z,99371.84
2022-11-07T09:33:50.796Z,99372.34
2022-11-07T09:36:19.184Z,99366.81
2022-11-07T09:38:47.487Z,99365.59
2022-11-07T09:41:48.458Z,99370.03
2022-11-07T09:44:49.882Z,99367.53
2022-11-07T09:47:43.127Z,99370.66
2022-11-07T09:50:29.551Z,99379.41
2022-11-07T09:53:12.385Z,99373.81
2022-11-07T09:56:05.050Z,99387.22
2022-11-07T09:58:38.450Z,99384.25
2022-11-07T10:01:12.056Z,99379.53
2022-11-07T10:03:49.140Z,99387.06
2022-11-07T10:06:44.200Z,99391.56
2022-11-07T10:09:38.252Z,99391.66
2022-11-07T10:12:24.815Z,99391.78
2022-11-07T10:15:23.335Z,99397.03
2022-11-07T10:18:25.022Z,99403.50
2022-11-07T10:21:23.024Z,99393.16
2022-11-07T10:24:00.260Z,99403.19
2022-11-07T10:26:30.508Z,99405.59
2022-11-07T10:29:15.476Z,99415.13
2022-11-07T10:31:55.595Z,99421.81
2022-11-07T10:34:37.192Z,99424.44
2022-11-07T10:37:06.166Z,99421.97
2022-11-07T10:39:35.453Z,99420.25
2022-11-07T10:42:19.635Z,99421.31
2022-11-07T10:44:48.998Z,99424.69
2022-11-07T10:47:23.049Z,99427.28
2022-11-07T10:50:03.015Z,99430.88
2022-11-07T10:52:31.727Z,99434.72
2022-11-07T10:55:08.574Z,99436.81
2022-11-07T10:57:37.358Z,99439.41
2022-11-07T11:00:09.021Z,99448.34
2022-11-07T11:02:51.049Z,99453.50
2022-11-07T11:05:25.930Z,99459.66
2022-11-07T11:07:57.267Z,99454.31
2022-11-07T11:10:32.821Z,99458.13
2022-11-07T11:13:01.134Z,99457.41
2022-11-07T11:15:34.499Z,99462.25
2022-11-07T11:18:06.565Z,99466.63
2022-11-07T11:20:58.101Z,99467.38
2022-11-07T11:23:30.280Z,99463.81
2022-11-07T11:26:23.274Z,99470.19
2022-11-07T11:28:57.017Z,99478.09
2022-11-07T11:31:34.453Z,99477.34
2022-11-07T11:34:16.019Z,99476.06
2022-11-07T11:37:03.017Z,99479.63
2022-11-07T11:39:57.504Z,99486.00
2022-11-07T11:43:06.528Z,99500.03
2022-11-07T11:45:37.980Z,99496.94
2022-11-07T11:48:27.505Z,99509.41
2022-11-07T11:51:07.701Z,99511.44
2022-11-07T11:53:36.105Z,99513.22
2022-11-07T11:56:28.739Z,99516.00
2022-11-07T11:59:06.796Z,99525.91
2022-11-07T12:01:46.479Z,99530.72
2022-11-07T12:04:36.386Z,99535.56
2022-11-07T12:07:18.255Z,99540.13
2022-11-07T12:10:04.749Z,99551.06
2022-11-07T12:12:36.102Z,99552.09
2022-11-07T12:15:29.235Z,99556.13
2022-11-07T12:18:28.442Z,99560.44
2022-11-07T12:23:48.241Z,99574.91
2022-11-07T12:26:44.259Z,99580.75
2022-11-07T12:29:28.974Z,99583.78
2022-11-07T12:32:23.464Z,99578.16
2022-11-07T12:35:09.918Z,99584.72
2022-11-07T12:38:09.078Z,99592.59
2022-11-07T12:40:43.088Z,99590.03
2022-11-07T12:43:23.237Z,99592.56
2022-11-07T12:46:07.453Z,99597.63
2022-11-07T12:48:56.990Z,99601.44
2022-11-07T12:51:47.459Z,99612.34
2022-11-07T12:54:33.603Z,99615.41
2022-11-07T12:57:07.984Z,99615.63
2022-11-07T12:59:41.506Z,99624.22
2022-11-07T13:02:30.805Z,99623.19
2022-11-07T13:05:40.624Z,99626.22
2022-11-07T13:08:37.721Z,99623.66
2022-11-07T13:11:28.796Z,99627.94
2022-11-07T13:14:23.797Z,99633.50
2022-11-07T13:17:09.250Z,99633.72
2022-11-07T13:19:43.905Z,99634.66
2022-11-07T13:22:17.953Z,99640.47
2022-11-07T13:25:16.318Z,99640.44
2022-11-07T13:27:57.328Z,99644.72
2022-11-07T13:30:31.607Z,99649.75
2022-11-07T13:33:01.497Z,99650.75
2022-11-07T13:35:38.236Z,99657.03
2022-11-07T13:38:22.217Z,99655.22
2022-11-07T13:41:04.725Z,99652.66
2022-11-07T13:43:57.476Z,99656.16
2022-11-07T13:46:48.430Z,99658.41
2022-11-07T13:49:19.813Z,99653.53
2022-11-07T13:51:51.385Z,99653.75
2022-11-07T13:54:32.340Z,99660.28
2022-11-07T13:57:36.194Z,99656.47
2022-11-07T14:00:14.804Z,99659.47
2022-11-07T14:02:57.642Z,99660.44
2022-11-07T14:05:39.379Z,99659.41
2022-11-07T14:08:23.833Z,99663.19
2022-11-07T14:10:54.063Z,99663.41
2022-11-07T14:13:27.998Z,99673.50
2022-11-07T14:16:06.403Z,99670.44
2022-11-07T14:18:48.227Z,99679.31
2022-11-07T14:21:40.829Z,99676.22
2022-11-07T14:24:21.773Z,99673.91
2022-11-07T14:27:17.185Z,99671.59
2022-11-07T14:30:00.931Z,99678.16
2022-11-07T14:32:31.993Z,99678.66
2022-11-07T14:35:01.610Z,99680.88
2022-11-07T14:37:35.168Z,99684.16
2022-11-07T14:40:03.712Z,99686.69
2022-11-07T14:42:32.106Z,99687.94
2022-11-07T14:45:01.061Z,99686.91
2022-11-07T14:47:38.410Z,99679.50
2022-11-07T14:50:07.601Z,99675.66
2022-11-07T14:52:42.633Z,99674.59
2022-11-07T14:55:44.920Z,99676.81
2022-11-07T14:58:14.631Z,99684.13
2022-11-07T15:00:53.552Z,99683.84
2022-11-07T15:03:24.351Z,99689.94
2022-11-07T15:05:52.721Z,99693.97
2022-11-07T15:08:31.559Z,99693.97
2022-11-07T15:11:37.242Z,99693.22
2022-11-07T15:14:21.488Z,99698.78
2022-11-07T15:16:51.763Z,99689.84
2022-11-07T15:19:23.472Z,99682.44
2022-11-07T15:22:04.273Z,99689.78
2022-11-07T15:24:45.090Z,99687.97
2022-11-07T15:27:21.438Z,99694.78
2022-11-07T15:29:58.330Z,99689.38
2022-11-07T15:32:30.594Z,99687.56
2022-11-07T15:35:12.263Z,99693.34
2022-11-07T15:38:01.283Z,99685.19
2022-11-07T15:40:31.143Z,99686.16
2022-11-07T15:42:59.889Z,99690.19
2022-11-07T15:45:28.361Z,99691.91
2022-11-07T15:47:56.669Z,99691.63
2022-11-07T15:50:26.378Z,99694.59
2022-11-07T15:52:55.546Z,99701.44
2022-11-07T15:55:25.167Z,99696.34
2022-11-07T15:57:55.550Z,99690.44
2022-11-07T16:00:26.555Z,99689.69
2022-11-07T16:02:55.116Z,99692.97
2022-11-07T16:05:23.487Z,99695.47
2022-11-07T16:07:51.893Z,99695.19
2022-11-07T16:10:26.097Z,99686.53
2022-11-07T16:12:55.242Z,99698.16
2022-11-07T16:15:26.522Z,99694.31
2022-11-07T16:17:54.845Z,99697.59
2022-11-07T16:20:25.100Z,99691.25
2022-11-07T16:22:53.785Z,99693.75
2022-11-07T16:25:26.653Z,99689.41
2022-11-07T16:27:57.576Z,99691.44
2022-11-07T16:30:26.419Z,99693.94
2022-11-07T16:32:54.917Z,99691.63
2022-11-07T16:35:23.730Z,99706.06
2022-11-07T16:37:52.141Z,99697.13
2022-11-07T16:40:21.336Z,99701.13
2022-11-07T16:42:49.650Z,99698.06
2022-11-07T16:45:21.401Z,99690.66
2022-11-07T16:47:49.877Z,99699.97
2022-11-07T16:50:18.832Z,99706.03
2022-11-07T16:52:47.173Z,99708.53
2022-11-07T16:55:17.106Z,99711.81
2022-11-07T16:57:45.840Z,99704.69
2022-11-07T17:00:23.003Z,99705.47
2022-11-07T17:02:52.007Z,99703.94
2022-11-07T17:05:20.531Z,99701.63
2022-11-07T17:07:51.122Z,99704.88
2022-11-07T17:10:22.523Z,99703.34
2022-11-07T17:12:51.199Z,99708.63
2022-11-07T17:15:19.481Z,99702.00
2022-11-07T17:17:48.105Z,99704.50
2022-11-07T17:20:52.341Z,99711.31
2022-11-07T17:23:13.657Z,99706.19
2022-11-07T17:25:47.510Z,99711.47
2022-11-07T17:28:17.295Z,99708.69
2022-11-07T17:30:45.867Z,99708.69
2022-11-07T17:33:14.510Z,99711.97
2022-11-07T17:35:42.984Z,99704.38
2022-11-07T17:38:20.362Z,99702.06
2022-11-07T17:40:48.857Z,99709.38
2022-11-07T17:43:17.173Z,99697.16
2022-11-07T17:45:46.208Z,99708.31
2022-11-07T17:48:14.948Z,99702.44
2022-11-07T17:50:43.742Z,99701.66
2022-11-07T17:53:12.197Z,99708.94
2022-11-07T17:55:40.671Z,99698.28
2022-11-07T17:58:10.915Z,99701.53
2022-11-07T18:00:39.258Z,99697.97
2022-11-07T18:03:07.707Z,99692.13
2022-11-07T18:05:36.145Z,99691.06
2022-11-07T18:08:04.580Z,99687.97
2022-11-07T18:10:33.795Z,99684.44
2022-11-07T18:13:02.357Z,99681.81
2022-11-07T18:15:30.734Z,99685.84
2022-11-07T18:17:59.078Z,99682.47
2022-11-07T18:20:28.668Z,99677.06
2022-11-07T18:22:56.973Z,99672.00
2022-11-07T18:25:25.325Z,99666.88
2022-11-07T18:27:53.632Z,99668.91
2022-11-07T18:30:21.956Z,99663.03
2022-11-07T18:32:50.260Z,99664.28
2022-11-07T18:35:18.623Z,99654.88
2022-11-07T18:37:46.948Z,99657.38
2022-11-07T18:40:15.407Z,99646.41
2022-11-07T18:42:47.262Z,99643.31
2022-11-07T18:45:15.687Z,99645.03
2022-11-07T18:47:44.095Z,99637.94
2022-11-07T18:50:12.492Z,99640.72
2022-11-07T18:52:40.890Z,99643.19
2022-11-07T18:55:10.653Z,99635.31
2022-11-07T18:57:39.145Z,99635.31
2022-11-07T19:00:12.275Z,99639.34
2022-11-07T19:02:41.892Z,99628.69
2022-11-07T19:05:10.346Z,99633.97
2022-11-07T19:07:40.748Z,99633.19
2022-11-07T19:10:09.561Z,99625.31
2022-11-07T19:12:37.916Z,99622.53
2022-11-07T19:15:08.129Z,99622.25
2022-11-07T19:17:36.903Z,99617.16
2022-11-07T19:20:07.765Z,99607.25
2022-11-07T19:22:36.162Z,99613.59
2022-11-07T19:25:04.506Z,99604.00
2022-11-07T19:27:33.938Z,99598.44
2022-11-07T19:30:02.369Z,99605.84
2022-11-07T19:32:30.715Z,99598.25
2022-11-07T19:34:59.099Z,99593.75
2022-11-07T19:37:27.433Z,99595.56
2022-11-07T19:39:55.911Z,99593.84
2022-11-07T19:42:29.078Z,99593.84
2022-11-07T19:44:57.553Z,99593.06
2022-11-07T19:47:25.956Z,99587.50
2022-11-07T19:49:54.320Z,99586.75
2022-11-07T19:52:22.726Z,99591.06
2022-11-07T19:54:52.197Z,99581.47
2022-11-07T19:57:20.513Z,99589.81
2022-11-07T19:59:48.867Z,99589.03
2022-11-07T20:02:35.373Z,99582.69
2022-11-07T20:05:06.811Z,99587.22
2022-11-07T20:07:35.171Z,99584.13
2022-11-07T20:10:03.565Z,99583.06
2022-11-07T20:12:31.846Z,99584.03
2022-11-07T20:15:00.903Z,99580.97
2022-11-07T20:17:29.217Z,99580.66
2022-11-07T20:20:02.634Z,99585.94
2022-11-07T20:22:32.928Z,99579.31
2022-11-07T20:25:01.351Z,99582.88
2022-11-07T20:27:29.697Z,99586.56
2022-11-07T20:29:59.338Z,99589.84
2022-11-07T20:32:28.593Z,99585.22
2022-11-07T20:34:57.006Z,99588.47
2022-11-07T20:37:25.382Z,99585.41
2022-11-07T20:39:53.777Z,99590.69
2022-11-07T20:42:22.179Z,99577.72
2022-11-07T20:44:52.001Z,99576.63
2022-11-07T20:47:20.400Z,99577.59
2022-11-07T20:49:48.772Z,99578.53
2022-11-07T20:52:17.135Z,99574.69
2022-11-07T20:54:45.447Z,99572.06
2022-11-07T20:57:13.802Z,99562.94
2022-11-07T20:59:43.055Z,99568.22
2022-11-07T21:02:13.416Z,99565.91
2022-11-07T21:05:03.247Z,99568.69
2022-11-07T21:07:30.378Z,99570.41
2022-11-07T21:09:58.690Z,99571.66
2022-11-07T21:12:27.054Z,99574.91
2022-11-07T21:14:55.598Z,99574.91
2022-11-07T21:17:23.925Z,99571.81
2022-11-07T21:19:52.238Z,99576.91
2022-11-07T21:22:23.149Z,99586.81
2022-11-07T21:24:53.763Z,99589.28
2022-11-07T21:27:22.269Z,99584.19
2022-11-07T21:29:50.674Z,99589.75
2022-11-07T21:32:18.973Z,99588.22
2022-11-07T21:34:48.218Z,99596.28
2022-11-07T21:37:16.564Z,99599.53
2022-11-07T21:39:44.876Z,99603.56
2022-11-07T21:42:13.731Z,99606.34
2022-11-07T21:44:42.033Z,99603.25
2022-11-07T21:47:10.320Z,99600.47
2022-11-07T21:49:38.752Z,99604.97
2022-11-07T21:52:07.239Z,99616.56
2022-11-07T21:54:36.230Z,99616.28
2022-11-07T21:57:05.364Z,99629.09
2022-11-07T21:59:34.370Z,99630.81
2022-11-07T22:02:03.388Z,99630.03
2022-11-07T22:04:32.393Z,99633.28
2022-11-07T22:07:01.289Z,99632.50
2022-11-07T22:09:30.288Z,99632.69
2022-11-07T22:11:59.242Z,99636.72
2022-11-07T22:14:28.123Z,99636.41
2022-11-07T22:16:58.189Z,99641.69
2022-11-07T22:19:27.728Z,99636.28
2022-11-07T22:21:56.058Z,99641.06
2022-11-07T22:24:26.972Z,99644.03
2022-11-07T22:26:56.817Z,99642.19
2022-11-07T22:29:25.160Z,99642.19
2022-11-07T22:31:53.516Z,99649.44
2022-11-07T22:34:21.887Z,99654.69
2022-11-07T22:36:50.291Z,99655.47
2022-11-07T22:39:18.769Z,99649.91
2022-11-07T22:41:47.397Z,99663.03
2022-11-07T22:44:15.833Z,99658.69
2022-11-07T22:46:44.199Z,99667.50
2022-11-07T22:49:12.574Z,99673.06
2022-11-07T22:51:40.975Z,99668.75
2022-11-07T22:54:13.936Z,99676.63
2022-11-07T22:56:42.410Z,99680.94
2022-11-07T22:59:12.716Z,99688.50
2022-11-07T23:01:43.715Z,99693.31
2022-11-07T23:04:16.117Z,99696.56
2022-11-07T23:06:44.442Z,99711.22
2022-11-07T23:09:17.744Z,99710.91
2022-11-07T23:11:47.911Z,99718.97
2022-11-07T23:14:20.054Z,99723.75
2022-11-07T23:16:53.644Z,99725.75
2022-11-07T23:19:25.242Z,99730.25
2022-11-07T23:21:55.773Z,99736.56
2022-11-07T23:24:24.473Z,99739.81
2022-11-07T23:26:53.012Z,99744.59
2022-11-07T23:29:24.849Z,99746.63
2022-11-07T23:31:53.690Z,99754.47
2022-11-07T23:34:26.831Z,99758.81
2022-11-07T23:36:55.265Z,99761.88
2022-11-07T23:39:24.712Z,99769.28
2022-11-07T23:41:53.814Z,99771.63
2022-11-07T23:44:22.589Z,99773.47
2022-11-07T23:47:09.670Z,99787.66
2022-11-07T23:49:56.165Z,99795.09
2022-11-07T23:52:24.741Z,99793.69
2022-11-07T23:55:11.294Z,99794.31
2022-11-07T23:57:57.719Z,99798.16
